sensor_id;sensor_type;location;lat;lon;timestamp;temperature;humidity
51863;DHT22;37900;52.996;6.278;2023-04-01T00:01:33;17.00;90.50
51863;DHT22;37900;52.996;6.278;2023-04-01T00:03:59;17.00;90.50
51863;DHT22;37900;52.996;6.278;2023-04-01T00:06:27;17.00;90.50
51863;DHT22;37900;52.996;6.278;2023-04-01T00:08:53;17.00;90.40
51863;DHT22;37900;52.996;6.278;2023-04-01T00:11:19;17.00;90.40
51863;DHT22;37900;52.996;6.278;2023-04-01T00:13:45;17.00;90.40
51863;DHT22;37900;52.996;6.278;2023-04-01T00:16:11;17.00;90.40
51863;DHT22;37900;52.996;6.278;2023-04-01T00:18:38;17.00;90.40
51863;DHT22;37900;52.996;6.278;2023-04-01T00:21:04;17.00;90.40
51863;DHT22;37900;52.996;6.278;2023-04-01T00:23:29;17.00;90.30
51863;DHT22;37900;52.996;6.278;2023-04-01T00:25:55;17.00;90.30
51863;DHT22;37900;52.996;6.278;2023-04-01T00:28:21;17.00;90.30
51863;DHT22;37900;52.996;6.278;2023-04-01T00:30:47;17.00;90.30
51863;DHT22;37900;52.996;6.278;2023-04-01T00:33:13;17.00;90.30
51863;DHT22;37900;52.996;6.278;2023-04-01T00:35:39;16.90;90.20
51863;DHT22;37900;52.996;6.278;2023-04-01T00:38:05;17.00;90.20
51863;DHT22;37900;52.996;6.278;2023-04-01T00:40:36;17.00;90.20
51863;DHT22;37900;52.996;6.278;2023-04-01T00:43:03;17.00;90.20
51863;DHT22;37900;52.996;6.278;2023-04-01T00:48:04;16.90;90.20
51863;DHT22;37900;52.996;6.278;2023-04-01T00:50:32;17.00;90.20
51863;DHT22;37900;52.996;6.278;2023-04-01T00:53:00;16.90;90.10
51863;DHT22;37900;52.996;6.278;2023-04-01T00:55:28;16.90;90.10
51863;DHT22;37900;52.996;6.278;2023-04-01T00:57:57;17.00;90.10
51863;DHT22;37900;52.996;6.278;2023-04-01T01:00:24;16.90;90.10
51863;DHT22;37900;52.996;6.278;2023-04-01T01:02:52;16.90;90.10
51863;DHT22;37900;52.996;6.278;2023-04-01T01:05:22;16.90;90.10
51863;DHT22;37900;52.996;6.278;2023-04-01T01:08:15;16.90;90.00
51863;DHT22;37900;52.996;6.278;2023-04-01T01:10:44;16.90;90.00
51863;DHT22;37900;52.996;6.278;2023-04-01T01:13:30;16.90;90.00
51863;DHT22;37900;52.996;6.278;2023-04-01T01:18:41;16.90;90.00
51863;DHT22;37900;52.996;6.278;2023-04-01T01:21:37;16.90;90.00
51863;DHT22;37900;52.996;6.278;2023-04-01T01:24:31;16.90;89.90
51863;DHT22;37900;52.996;6.278;2023-04-01T01:27:12;16.90;89.80
51863;DHT22;37900;52.996;6.278;2023-04-01T01:35:38;16.90;89.80
51863;DHT22;37900;52.996;6.278;2023-04-01T01:38:10;16.80;89.70
51863;DHT22;37900;52.996;6.278;2023-04-01T01:40:38;16.80;89.70
51863;DHT22;37900;52.996;6.278;2023-04-01T01:43:10;16.80;90.10
51863;DHT22;37900;52.996;6.278;2023-04-01T01:45:40;16.80;89.60
51863;DHT22;37900;52.996;6.278;2023-04-01T01:48:09;16.90;89.70
51863;DHT22;37900;52.996;6.278;2023-04-01T01:50:36;16.90;89.70
51863;DHT22;37900;52.996;6.278;2023-04-01T01:53:10;16.80;89.60
51863;DHT22;37900;52.996;6.278;2023-04-01T01:55:39;16.80;89.50
51863;DHT22;37900;52.996;6.278;2023-04-01T02:00:46;16.80;89.40
51863;DHT22;37900;52.996;6.278;2023-04-01T02:03:13;16.80;89.50
51863;DHT22;37900;52.996;6.278;2023-04-01T02:05:40;16.80;89.40
51863;DHT22;37900;52.996;6.278;2023-04-01T02:08:26;16.80;89.40
51863;DHT22;37900;52.996;6.278;2023-04-01T02:11:04;16.80;89.30
51863;DHT22;37900;52.996;6.278;2023-04-01T02:13:42;16.80;89.30
51863;DHT22;37900;52.996;6.278;2023-04-01T02:16:29;16.80;89.30
51863;DHT22;37900;52.996;6.278;2023-04-01T02:18:58;16.80;89.20
51863;DHT22;37900;52.996;6.278;2023-04-01T02:21:27;16.80;89.20
51863;DHT22;37900;52.996;6.278;2023-04-01T02:23:57;16.80;89.20
51863;DHT22;37900;52.996;6.278;2023-04-01T02:26:25;16.80;89.20
51863;DHT22;37900;52.996;6.278;2023-04-01T02:28:53;16.80;89.20
51863;DHT22;37900;52.996;6.278;2023-04-01T02:31:20;16.80;89.20
51863;DHT22;37900;52.996;6.278;2023-04-01T02:33:47;16.70;89.10
51863;DHT22;37900;52.996;6.278;2023-04-01T02:36:15;16.80;89.00
51863;DHT22;37900;52.996;6.278;2023-04-01T02:38:43;16.70;89.10
51863;DHT22;37900;52.996;6.278;2023-04-01T02:41:09;16.80;89.10
51863;DHT22;37900;52.996;6.278;2023-04-01T02:43:35;16.80;89.10
51863;DHT22;37900;52.996;6.278;2023-04-01T02:46:00;16.80;89.10
51863;DHT22;37900;52.996;6.278;2023-04-01T02:48:27;16.80;89.10
51863;DHT22;37900;52.996;6.278;2023-04-01T02:50:53;16.80;89.00
51863;DHT22;37900;52.996;6.278;2023-04-01T02:53:19;16.70;88.90
51863;DHT22;37900;52.996;6.278;2023-04-01T02:55:44;16.70;88.90
51863;DHT22;37900;52.996;6.278;2023-04-01T02:58:10;16.70;88.90
51863;DHT22;37900;52.996;6.278;2023-04-01T03:00:37;16.70;88.90
51863;DHT22;37900;52.996;6.278;2023-04-01T03:03:03;16.70;88.80
51863;DHT22;37900;52.996;6.278;2023-04-01T03:05:29;16.70;88.80
51863;DHT22;37900;52.996;6.278;2023-04-01T03:07:55;16.70;88.80
51863;DHT22;37900;52.996;6.278;2023-04-01T03:10:20;16.70;88.70
51863;DHT22;37900;52.996;6.278;2023-04-01T03:12:46;16.70;88.70
51863;DHT22;37900;52.996;6.278;2023-04-01T03:15:13;16.70;88.70
51863;DHT22;37900;52.996;6.278;2023-04-01T03:17:41;16.70;88.70
51863;DHT22;37900;52.996;6.278;2023-04-01T03:20:09;16.70;88.70
51863;DHT22;37900;52.996;6.278;2023-04-01T03:22:36;16.70;88.70
51863;DHT22;37900;52.996;6.278;2023-04-01T03:25:03;16.70;88.60
51863;DHT22;37900;52.996;6.278;2023-04-01T03:27:29;16.70;88.60
51863;DHT22;37900;52.996;6.278;2023-04-01T03:29:55;16.70;88.60
51863;DHT22;37900;52.996;6.278;2023-04-01T03:32:21;16.70;88.60
51863;DHT22;37900;52.996;6.278;2023-04-01T03:34:46;16.70;88.50
51863;DHT22;37900;52.996;6.278;2023-04-01T03:37:12;16.70;88.50
51863;DHT22;37900;52.996;6.278;2023-04-01T03:39:39;16.70;88.50
51863;DHT22;37900;52.996;6.278;2023-04-01T03:42:05;16.70;88.50
51863;DHT22;37900;52.996;6.278;2023-04-01T03:44:33;16.70;88.50
51863;DHT22;37900;52.996;6.278;2023-04-01T03:46:59;16.70;88.40
51863;DHT22;37900;52.996;6.278;2023-04-01T03:49:25;16.70;88.40
51863;DHT22;37900;52.996;6.278;2023-04-01T03:51:51;16.60;88.40
51863;DHT22;37900;52.996;6.278;2023-04-01T03:54:17;16.60;88.30
51863;DHT22;37900;52.996;6.278;2023-04-01T03:56:45;16.60;88.30
51863;DHT22;37900;52.996;6.278;2023-04-01T03:59:11;16.70;88.30
51863;DHT22;37900;52.996;6.278;2023-04-01T04:01:37;16.60;88.80
51863;DHT22;37900;52.996;6.278;2023-04-01T04:04:03;16.70;88.30
51863;DHT22;37900;52.996;6.278;2023-04-01T04:06:30;16.60;88.20
51863;DHT22;37900;52.996;6.278;2023-04-01T04:08:55;16.60;88.20
51863;DHT22;37900;52.996;6.278;2023-04-01T04:11:22;16.60;88.20
51863;DHT22;37900;52.996;6.278;2023-04-01T04:13:48;16.60;88.10
51863;DHT22;37900;52.996;6.278;2023-04-01T04:16:15;16.60;88.10
51863;DHT22;37900;52.996;6.278;2023-04-01T04:18:42;16.60;88.10
51863;DHT22;37900;52.996;6.278;2023-04-01T04:21:12;16.60;88.10
51863;DHT22;37900;52.996;6.278;2023-04-01T04:23:38;16.60;88.10
51863;DHT22;37900;52.996;6.278;2023-04-01T04:26:06;16.60;88.10
51863;DHT22;37900;52.996;6.278;2023-04-01T04:28:33;16.60;88.10
51863;DHT22;37900;52.996;6.278;2023-04-01T04:30:59;16.60;88.00
51863;DHT22;37900;52.996;6.278;2023-04-01T04:33:25;16.60;88.00
51863;DHT22;37900;52.996;6.278;2023-04-01T04:35:54;16.60;88.00
51863;DHT22;37900;52.996;6.278;2023-04-01T04:38:20;16.60;88.00
51863;DHT22;37900;52.996;6.278;2023-04-01T04:40:46;16.60;88.00
51863;DHT22;37900;52.996;6.278;2023-04-01T04:43:13;16.60;88.00
51863;DHT22;37900;52.996;6.278;2023-04-01T04:45:39;16.60;88.00
51863;DHT22;37900;52.996;6.278;2023-04-01T04:48:07;16.60;88.00
51863;DHT22;37900;52.996;6.278;2023-04-01T04:50:33;16.50;88.00
51863;DHT22;37900;52.996;6.278;2023-04-01T04:52:59;16.50;87.90
51863;DHT22;37900;52.996;6.278;2023-04-01T04:55:25;16.60;87.90
51863;DHT22;37900;52.996;6.278;2023-04-01T04:57:50;16.50;87.90
51863;DHT22;37900;52.996;6.278;2023-04-01T05:00:16;16.50;87.80
51863;DHT22;37900;52.996;6.278;2023-04-01T05:02:43;16.70;88.00
51863;DHT22;37900;52.996;6.278;2023-04-01T05:05:08;16.50;87.80
51863;DHT22;37900;52.996;6.278;2023-04-01T05:07:34;16.60;87.90
51863;DHT22;37900;52.996;6.278;2023-04-01T05:10:00;16.50;87.80
51863;DHT22;37900;52.996;6.278;2023-04-01T05:12:26;16.60;87.90
51863;DHT22;37900;52.996;6.278;2023-04-01T05:14:52;16.60;87.80
51863;DHT22;37900;52.996;6.278;2023-04-01T05:17:17;16.50;87.80
51863;DHT22;37900;52.996;6.278;2023-04-01T05:19:43;16.50;87.80
51863;DHT22;37900;52.996;6.278;2023-04-01T05:22:09;16.50;87.70
51863;DHT22;37900;52.996;6.278;2023-04-01T05:24:34;16.50;87.80
51863;DHT22;37900;52.996;6.278;2023-04-01T05:27:00;16.50;87.70
51863;DHT22;37900;52.996;6.278;2023-04-01T05:29:26;16.50;87.70
51863;DHT22;37900;52.996;6.278;2023-04-01T05:31:52;16.50;87.70
51863;DHT22;37900;52.996;6.278;2023-04-01T05:34:18;16.50;87.70
51863;DHT22;37900;52.996;6.278;2023-04-01T05:36:44;16.50;87.60
51863;DHT22;37900;52.996;6.278;2023-04-01T05:39:10;16.50;87.60
51863;DHT22;37900;52.996;6.278;2023-04-01T05:41:37;16.50;87.60
51863;DHT22;37900;52.996;6.278;2023-04-01T05:44:03;16.50;87.60
51863;DHT22;37900;52.996;6.278;2023-04-01T05:46:29;16.50;87.60
51863;DHT22;37900;52.996;6.278;2023-04-01T05:48:55;16.50;87.60
51863;DHT22;37900;52.996;6.278;2023-04-01T05:51:20;16.50;87.60
51863;DHT22;37900;52.996;6.278;2023-04-01T05:53:46;16.40;87.50
51863;DHT22;37900;52.996;6.278;2023-04-01T05:56:12;16.50;87.50
51863;DHT22;37900;52.996;6.278;2023-04-01T05:58:38;16.40;87.50
51863;DHT22;37900;52.996;6.278;2023-04-01T06:01:06;16.40;87.40
51863;DHT22;37900;52.996;6.278;2023-04-01T06:03:32;16.40;87.40
51863;DHT22;37900;52.996;6.278;2023-04-01T06:05:58;16.50;87.50
51863;DHT22;37900;52.996;6.278;2023-04-01T06:08:27;16.50;87.50
51863;DHT22;37900;52.996;6.278;2023-04-01T06:14:10;16.50;87.40
51863;DHT22;37900;52.996;6.278;2023-04-01T06:17:02;16.40;87.30
51863;DHT22;37900;52.996;6.278;2023-04-01T06:19:46;16.40;87.40
51863;DHT22;37900;52.996;6.278;2023-04-01T06:22:41;16.40;87.40
51863;DHT22;37900;52.996;6.278;2023-04-01T06:25:25;16.40;87.30
51863;DHT22;37900;52.996;6.278;2023-04-01T06:33:25;16.40;87.30
51863;DHT22;37900;52.996;6.278;2023-04-01T06:39:17;16.40;87.30
51863;DHT22;37900;52.996;6.278;2023-04-01T06:50:34;16.40;87.30
51863;DHT22;37900;52.996;6.278;2023-04-01T06:53:19;16.40;87.40
51863;DHT22;37900;52.996;6.278;2023-04-01T06:55:57;16.40;87.30
51863;DHT22;37900;52.996;6.278;2023-04-01T06:58:37;16.40;87.30
51863;DHT22;37900;52.996;6.278;2023-04-01T07:01:12;16.40;87.30
51863;DHT22;37900;52.996;6.278;2023-04-01T07:03:43;16.40;87.30
51863;DHT22;37900;52.996;6.278;2023-04-01T07:06:17;16.40;87.40
51863;DHT22;37900;52.996;6.278;2023-04-01T07:08:46;16.40;87.30
51863;DHT22;37900;52.996;6.278;2023-04-01T07:11:33;16.40;87.30
51863;DHT22;37900;52.996;6.278;2023-04-01T07:14:02;16.40;87.30
51863;DHT22;37900;52.996;6.278;2023-04-01T07:16:32;16.30;87.30
51863;DHT22;37900;52.996;6.278;2023-04-01T07:22:05;16.40;87.30
51863;DHT22;37900;52.996;6.278;2023-04-01T07:24:39;16.30;87.30
51863;DHT22;37900;52.996;6.278;2023-04-01T07:27:09;16.30;87.20
51863;DHT22;37900;52.996;6.278;2023-04-01T07:29:39;16.30;87.20
51863;DHT22;37900;52.996;6.278;2023-04-01T07:35:00;16.30;87.20
51863;DHT22;37900;52.996;6.278;2023-04-01T07:47:04;16.30;87.10
51863;DHT22;37900;52.996;6.278;2023-04-01T07:51:32;16.30;87.20
51863;DHT22;37900;52.996;6.278;2023-04-01T07:54:18;16.30;87.20
51863;DHT22;37900;52.996;6.278;2023-04-01T07:59:53;16.30;87.10
51863;DHT22;37900;52.996;6.278;2023-04-01T08:07:30;16.30;87.20
51863;DHT22;37900;52.996;6.278;2023-04-01T08:10:28;16.30;87.20
51863;DHT22;37900;52.996;6.278;2023-04-01T08:13:15;16.30;87.30
51863;DHT22;37900;52.996;6.278;2023-04-01T08:16:09;16.30;87.30
51863;DHT22;37900;52.996;6.278;2023-04-01T08:21:34;16.30;87.40
51863;DHT22;37900;52.996;6.278;2023-04-01T08:24:56;16.30;87.50
51863;DHT22;37900;52.996;6.278;2023-04-01T08:26:59;16.30;87.60
51863;DHT22;37900;52.996;6.278;2023-04-01T08:29:41;16.30;87.70
51863;DHT22;37900;52.996;6.278;2023-04-01T08:32:17;16.30;87.70
51863;DHT22;37900;52.996;6.278;2023-04-01T08:34:47;16.30;87.80
51863;DHT22;37900;52.996;6.278;2023-04-01T08:37:24;16.30;87.90
51863;DHT22;37900;52.996;6.278;2023-04-01T08:39:55;16.30;88.10
51863;DHT22;37900;52.996;6.278;2023-04-01T08:53:50;16.30;88.30
51863;DHT22;37900;52.996;6.278;2023-04-01T08:56:47;16.30;88.30
51863;DHT22;37900;52.996;6.278;2023-04-01T08:59:38;16.30;88.30
51863;DHT22;37900;52.996;6.278;2023-04-01T09:02:56;16.30;88.40
51863;DHT22;37900;52.996;6.278;2023-04-01T09:05:20;16.30;88.50
51863;DHT22;37900;52.996;6.278;2023-04-01T09:08:03;16.30;88.50
51863;DHT22;37900;52.996;6.278;2023-04-01T09:29:01;16.40;88.90
51863;DHT22;37900;52.996;6.278;2023-04-01T09:32:13;16.40;88.90
51863;DHT22;37900;52.996;6.278;2023-04-01T09:34:53;16.40;89.00
51863;DHT22;37900;52.996;6.278;2023-04-01T09:40:16;16.40;89.70
51863;DHT22;37900;52.996;6.278;2023-04-01T09:42:56;16.40;89.20
51863;DHT22;37900;52.996;6.278;2023-04-01T09:45:48;16.40;89.20
51863;DHT22;37900;52.996;6.278;2023-04-01T09:51:04;16.40;89.40
51863;DHT22;37900;52.996;6.278;2023-04-01T10:27:01;16.50;90.00
51863;DHT22;37900;52.996;6.278;2023-04-01T10:32:45;16.50;90.10
51863;DHT22;37900;52.996;6.278;2023-04-01T10:44:41;16.60;90.60
51863;DHT22;37900;52.996;6.278;2023-04-01T11:05:23;16.70;90.60
51863;DHT22;37900;52.996;6.278;2023-04-01T11:25:17;16.70;90.80
51863;DHT22;37900;52.996;6.278;2023-04-01T11:45:25;16.70;90.90
51863;DHT22;37900;52.996;6.278;2023-04-01T11:48:17;16.70;91.00
51863;DHT22;37900;52.996;6.278;2023-04-01T11:53:44;16.70;91.10
51863;DHT22;37900;52.996;6.278;2023-04-01T11:56:22;16.70;91.20
51863;DHT22;37900;52.996;6.278;2023-04-01T12:04:46;16.80;91.30
51863;DHT22;37900;52.996;6.278;2023-04-01T12:10:50;16.80;91.30
51863;DHT22;37900;52.996;6.278;2023-04-01T12:13:43;16.70;91.30
51863;DHT22;37900;52.996;6.278;2023-04-01T12:21:37;16.60;91.30
51863;DHT22;37900;52.996;6.278;2023-04-01T12:24:21;16.70;91.30
51863;DHT22;37900;52.996;6.278;2023-04-01T12:27:05;16.70;91.30
51863;DHT22;37900;52.996;6.278;2023-04-01T12:29:49;16.70;91.30
51863;DHT22;37900;52.996;6.278;2023-04-01T12:32:23;16.70;91.30
51863;DHT22;37900;52.996;6.278;2023-04-01T12:46:09;16.80;91.30
51863;DHT22;37900;52.996;6.278;2023-04-01T12:50:06;16.80;91.30
51863;DHT22;37900;52.996;6.278;2023-04-01T12:54:48;16.80;91.20
51863;DHT22;37900;52.996;6.278;2023-04-01T12:57:24;16.70;91.20
51863;DHT22;37900;52.996;6.278;2023-04-01T13:00:25;16.70;91.30
51863;DHT22;37900;52.996;6.278;2023-04-01T13:08:20;16.70;91.10
51863;DHT22;37900;52.996;6.278;2023-04-01T13:11:13;16.70;91.10
51863;DHT22;37900;52.996;6.278;2023-04-01T13:16:50;16.80;91.10
51863;DHT22;37900;52.996;6.278;2023-04-01T13:19:25;16.80;91.10
51863;DHT22;37900;52.996;6.278;2023-04-01T13:22:23;16.80;91.10
51863;DHT22;37900;52.996;6.278;2023-04-01T13:25:06;16.80;91.10
51863;DHT22;37900;52.996;6.278;2023-04-01T13:27:44;16.80;91.30
51863;DHT22;37900;52.996;6.278;2023-04-01T13:30:32;16.80;91.00
51863;DHT22;37900;52.996;6.278;2023-04-01T13:33:45;16.80;91.00
51863;DHT22;37900;52.996;6.278;2023-04-01T13:39:26;16.70;91.00
51863;DHT22;37900;52.996;6.278;2023-04-01T13:42:33;16.80;91.00
51863;DHT22;37900;52.996;6.278;2023-04-01T13:45:17;16.80;90.90
51863;DHT22;37900;52.996;6.278;2023-04-01T13:52:05;16.80;90.90
51863;DHT22;37900;52.996;6.278;2023-04-01T13:59:40;16.70;90.90
51863;DHT22;37900;52.996;6.278;2023-04-01T14:49:39;16.70;90.60
51863;DHT22;37900;52.996;6.278;2023-04-01T14:52:27;16.70;90.60
51863;DHT22;37900;52.996;6.278;2023-04-01T14:54:54;16.70;90.70
51863;DHT22;37900;52.996;6.278;2023-04-01T14:57:26;16.70;90.60
51863;DHT22;37900;52.996;6.278;2023-04-01T15:00:14;16.70;90.60
51863;DHT22;37900;52.996;6.278;2023-04-01T15:02:57;16.80;90.60
51863;DHT22;37900;52.996;6.278;2023-04-01T15:09:07;16.70;90.50
51863;DHT22;37900;52.996;6.278;2023-04-01T15:28:53;16.70;90.20
51863;DHT22;37900;52.996;6.278;2023-04-01T15:31:49;16.70;90.20
51863;DHT22;37900;52.996;6.278;2023-04-01T15:34:26;16.60;90.10
51863;DHT22;37900;52.996;6.278;2023-04-01T15:37:16;16.60;90.10
51863;DHT22;37900;52.996;6.278;2023-04-01T15:40:36;16.70;90.10
51863;DHT22;37900;52.996;6.278;2023-04-01T15:51:02;16.60;89.90
51863;DHT22;37900;52.996;6.278;2023-04-01T15:57:14;16.60;89.70
51863;DHT22;37900;52.996;6.278;2023-04-01T16:00:04;16.60;89.70
51863;DHT22;37900;52.996;6.278;2023-04-01T16:05:31;16.60;89.80
51863;DHT22;37900;52.996;6.278;2023-04-01T16:08:10;16.60;89.70
51863;DHT22;37900;52.996;6.278;2023-04-01T16:13:44;16.70;89.70
51863;DHT22;37900;52.996;6.278;2023-04-01T16:16:31;16.70;89.60
51863;DHT22;37900;52.996;6.278;2023-04-01T16:21:50;16.60;89.50
51863;DHT22;37900;52.996;6.278;2023-04-01T16:27:00;16.60;89.30
51863;DHT22;37900;52.996;6.278;2023-04-01T16:29:55;16.70;89.30
51863;DHT22;37900;52.996;6.278;2023-04-01T16:32:50;16.70;89.20
51863;DHT22;37900;52.996;6.278;2023-04-01T16:35:41;16.60;89.10
51863;DHT22;37900;52.996;6.278;2023-04-01T16:38:23;16.60;89.00
51863;DHT22;37900;52.996;6.278;2023-04-01T16:43:30;16.60;88.90
51863;DHT22;37900;52.996;6.278;2023-04-01T16:46:53;16.60;88.90
51863;DHT22;37900;52.996;6.278;2023-04-01T16:54:57;16.60;88.50
51863;DHT22;37900;52.996;6.278;2023-04-01T17:03:02;16.60;88.50
51863;DHT22;37900;52.996;6.278;2023-04-01T17:13:52;16.60;88.20
51863;DHT22;37900;52.996;6.278;2023-04-01T17:16:47;16.60;88.30
51863;DHT22;37900;52.996;6.278;2023-04-01T17:25:04;16.60;88.10
51863;DHT22;37900;52.996;6.278;2023-04-01T17:36:39;16.50;87.80
51863;DHT22;37900;52.996;6.278;2023-04-01T17:42:36;16.60;87.60
51863;DHT22;37900;52.996;6.278;2023-04-01T17:48:21;16.50;87.30
51863;DHT22;37900;52.996;6.278;2023-04-01T17:51:13;16.50;87.20
51863;DHT22;37900;52.996;6.278;2023-04-01T17:56:22;16.60;87.40
51863;DHT22;37900;52.996;6.278;2023-04-01T18:02:32;16.60;87.20
51863;DHT22;37900;52.996;6.278;2023-04-01T18:16:21;16.60;87.10
51863;DHT22;37900;52.996;6.278;2023-04-01T18:21:46;16.50;86.90
51863;DHT22;37900;52.996;6.278;2023-04-01T18:24:28;16.50;86.90
51863;DHT22;37900;52.996;6.278;2023-04-01T18:27:04;16.50;86.70
51863;DHT22;37900;52.996;6.278;2023-04-01T18:32:37;16.50;86.90
51863;DHT22;37900;52.996;6.278;2023-04-01T18:37:46;16.50;86.90
51863;DHT22;37900;52.996;6.278;2023-04-01T18:40:25;16.50;87.00
51863;DHT22;37900;52.996;6.278;2023-04-01T18:45:39;16.50;87.10
51863;DHT22;37900;52.996;6.278;2023-04-01T18:56:06;16.60;87.50
51863;DHT22;37900;52.996;6.278;2023-04-01T18:58:45;16.60;87.80
51863;DHT22;37900;52.996;6.278;2023-04-01T19:04:20;16.60;88.10
51863;DHT22;37900;52.996;6.278;2023-04-01T19:06:59;16.60;88.40
51863;DHT22;37900;52.996;6.278;2023-04-01T19:09:45;16.70;88.60
51863;DHT22;37900;52.996;6.278;2023-04-01T19:20:56;16.70;89.20
51863;DHT22;37900;52.996;6.278;2023-04-01T19:29:12;16.70;89.50
51863;DHT22;37900;52.996;6.278;2023-04-01T19:37:11;16.70;90.20
51863;DHT22;37900;52.996;6.278;2023-04-01T19:47:49;16.70;90.00
51863;DHT22;37900;52.996;6.278;2023-04-01T19:50:31;16.70;90.00
51863;DHT22;37900;52.996;6.278;2023-04-01T19:53:14;16.70;90.10
51863;DHT22;37900;52.996;6.278;2023-04-01T19:56:01;16.70;90.10
51863;DHT22;37900;52.996;6.278;2023-04-01T19:58:45;16.80;90.20
51863;DHT22;37900;52.996;6.278;2023-04-01T20:01:20;16.80;90.20
51863;DHT22;37900;52.996;6.278;2023-04-01T20:04:03;16.80;90.20
51863;DHT22;37900;52.996;6.278;2023-04-01T20:09:11;16.80;90.30
51863;DHT22;37900;52.996;6.278;2023-04-01T20:17:41;16.80;90.40
51863;DHT22;37900;52.996;6.278;2023-04-01T20:25:39;16.80;90.30
51863;DHT22;37900;52.996;6.278;2023-04-01T20:39:27;16.70;90.10
51863;DHT22;37900;52.996;6.278;2023-04-01T20:42:12;16.80;90.10
51863;DHT22;37900;52.996;6.278;2023-04-01T21:01:12;16.70;89.60
51863;DHT22;37900;52.996;6.278;2023-04-01T21:11:56;16.60;89.10
51863;DHT22;37900;52.996;6.278;2023-04-01T21:14:42;16.70;89.00
51863;DHT22;37900;52.996;6.278;2023-04-01T21:17:22;16.60;88.80
51863;DHT22;37900;52.996;6.278;2023-04-01T21:30:54;16.60;88.20
51863;DHT22;37900;52.996;6.278;2023-04-01T21:33:42;16.60;87.90
51863;DHT22;37900;52.996;6.278;2023-04-01T21:39:40;16.60;87.90
51863;DHT22;37900;52.996;6.278;2023-04-01T21:45:02;16.50;87.80
51863;DHT22;37900;52.996;6.278;2023-04-01T22:07:24;16.40;87.20
51863;DHT22;37900;52.996;6.278;2023-04-01T22:12:54;16.40;87.30
51863;DHT22;37900;52.996;6.278;2023-04-01T22:23:55;16.40;87.80
51863;DHT22;37900;52.996;6.278;2023-04-01T22:29:01;16.40;87.80
51863;DHT22;37900;52.996;6.278;2023-04-01T22:31:44;16.40;87.80
51863;DHT22;37900;52.996;6.278;2023-04-01T22:37:15;16.40;87.80
51863;DHT22;37900;52.996;6.278;2023-04-01T22:47:37;16.40;87.40
51863;DHT22;37900;52.996;6.278;2023-04-01T22:52:43;16.50;87.30
51863;DHT22;37900;52.996;6.278;2023-04-01T22:55:15;16.30;87.20
51863;DHT22;37900;52.996;6.278;2023-04-01T23:00:25;16.30;87.00
51863;DHT22;37900;52.996;6.278;2023-04-01T23:05:57;16.30;86.80
51863;DHT22;37900;52.996;6.278;2023-04-01T23:11:27;16.30;86.60
51863;DHT22;37900;52.996;6.278;2023-04-01T23:16:36;16.30;86.40
51863;DHT22;37900;52.996;6.278;2023-04-01T23:19:22;16.20;86.20
51863;DHT22;37900;52.996;6.278;2023-04-01T23:24:38;16.20;86.00
51863;DHT22;37900;52.996;6.278;2023-04-01T23:27:12;16.20;85.90
51863;DHT22;37900;52.996;6.278;2023-04-01T23:29:41;16.20;85.80
51863;DHT22;37900;52.996;6.278;2023-04-01T23:32:18;16.20;85.80
51863;DHT22;37900;52.996;6.278;2023-04-01T23:34:52;16.20;85.60
51863;DHT22;37900;52.996;6.278;2023-04-01T23:37:19;16.20;85.60
51863;DHT22;37900;52.996;6.278;2023-04-01T23:39:48;16.20;85.50
51863;DHT22;37900;52.996;6.278;2023-04-01T23:42:59;16.20;85.40
51863;DHT22;37900;52.996;6.278;2023-04-01T23:45:18;16.20;85.30
51863;DHT22;37900;52.996;6.278;2023-04-01T23:47:46;16.10;85.20
51863;DHT22;37900;52.996;6.278;2023-04-01T23:50:24;16.20;85.20
51863;DHT22;37900;52.996;6.278;2023-04-01T23:52:59;16.10;84.90
51863;DHT22;37900;52.996;6.278;2023-04-01T23:55:28;16.10;84.90
